METAR Data
IDs: Format: Raw Decoded Include TAF

Data at: 2159 UTC 20 Nov 2018

KAMA 202153Z 20012KT 10SM CLR 12/M06 A3022 RMK AO2 SLP229 T01221056
KAMA 202053Z 20012KT 10SM CLR 12/M06 A3023 RMK AO2 SLP232 T01221056 56026
KAMA 201953Z 20015G19KT 10SM CLR 12/M06 A3025 RMK AO2 SLP241 T01221056
KAMA 201853Z 20015KT 10SM CLR 12/M06 A3028 RMK AO2 SLP250 T01171061
KAMA 201753Z 19014KT 10SM CLR 11/M05 A3032 RMK AO2 SLP266 T01061050 10106 21050 58011
KAMA 201653Z 19015KT 10SM CLR 08/M05 A3034 RMK AO2 SLP277 T00831050
KAMA 201553Z 21010KT 10SM CLR 06/M04 A3036 RMK AO2 SLP286 T00561044 $
KAMA 201453Z 22008KT 10SM CLR 02/M03 A3035 RMK AO2 SLP286 T00171033 53013 $
KAMA 201353Z 21008KT 10SM CLR M03/M06 A3034 RMK AO2 SLP287 T10281061 $
KAMA 201253Z 21006KT 10SM CLR M03/M07 A3032 RMK AO2 SLP283 T10331072 $
KAMA 201153Z 21008KT 10SM CLR M03/M07 A3031 RMK AO2 SLP276 T10331072 10006 21033 56003 $
KAMA 201053Z AUTO 21005KT 10SM CLR M01/M06 A3031 RMK AO2 SLP264 T10061061 $
KAMA 200953Z AUTO 23003KT 10SM CLR M01/M06 A3031 RMK AO2 SLP262 T10061061 $
KAMA 200853Z AUTO 22004KT 10SM CLR 00/M06 A3032 RMK AO2 SLP261 T00001056 58002 $
KAMA 200753Z AUTO 22006KT 10SM CLR M01/M06 A3033 RMK AO2 SLP268 T10111056 $
KAMA 200653Z AUTO 22004KT 10SM CLR 00/M06 A3033 RMK AO2 SLP268 T00001056 $
KAMA 200553Z AUTO 19003KT 10SM CLR M01/M06 A3032 RMK AO2 SLP269 T10111061 10044 21017 401281039 51011 $
KAMA 200453Z 00000KT 10SM CLR M01/M06 A3032 RMK AO2 SLP272 T10061056 $
KAMA 200353Z 00000KT 10SM CLR 01/M06 A3031 RMK AO2 SLP271 T00061056 $
KAMA 200253Z 05003KT 10SM CLR 02/M06 A3029 RMK AO2 SLP265 T00221056 51019
KAMA 200153Z 04004KT 10SM CLR 03/M06 A3028 RMK AO2 SLP265 T00281056
KAMA 200053Z 04006KT 10SM CLR 02/M06 A3025 RMK AO2 SLP258 T00221061
KAMA 192353Z 01007KT 10SM CLR 04/M07 A3023 RMK AO2 SLP246 T00441067 10128 20044 53013
KAMA 192253Z 02011KT 10SM CLR 10/M07 A3021 RMK AO2 SLP229 T01001072
KAMA 192153Z 02012KT 10SM CLR 12/M09 A3019 RMK AO2 SLP222 T01171089
KAMA 192053Z 01013KT 10SM CLR 13/M09 A3018 RMK AO2 SLP216 T01281094 56010
KAMA 191953Z 36012KT 10SM CLR 12/M09 A3019 RMK AO2 SLP221 T01221089
KAMA 191853Z 35015G23KT 10SM CLR 11/M06 A3021 RMK AO2 SLP230 T01111056
KAMA 191753Z 01014KT 10SM CLR 09/M05 A3022 RMK AO2 SLP234 T00941050 10094 21039 51015
KAMA 191653Z 35015KT 10SM CLR 06/M03 A3022 RMK AO2 SLP239 T00561028
KAMA 191553Z 34013KT 10SM CLR 03/M02 A3020 RMK AO2 SLP231 T00281017
KAMA 191453Z 31007KT 10SM CLR 01/M02 A3017 RMK AO2 SLP226 T00061022 53021
KAMA 191353Z 30008KT 10SM CLR M02/M04 A3014 RMK AO2 SLP221 T10171039
KAMA 191253Z 32006KT 10SM CLR M03/M05 A3012 RMK AO2 SLP214 T10281050
KAMA 191153Z 28004KT 10SM CLR M03/M04 A3010 RMK AO2 SLP206 T10281044 11011 21039 53002
KAMA 191053Z AUTO 27009KT 10SM CLR M01/M04 A3009 RMK AO2 SLP199 T10111039